sensor_id;sensor_type;location;lat;lon;timestamp;temperature;humidity
4896;DHT22;2463;49.948;8.472;2023-05-10T00:00:30;14.60;99.90
4896;DHT22;2463;49.948;8.472;2023-05-10T00:02:57;14.60;99.90
4896;DHT22;2463;49.948;8.472;2023-05-10T00:05:24;14.60;99.90
4896;DHT22;2463;49.948;8.472;2023-05-10T00:07:51;14.60;99.90
4896;DHT22;2463;49.948;8.472;2023-05-10T00:10:17;14.60;99.90
4896;DHT22;2463;49.948;8.472;2023-05-10T00:12:44;14.60;99.90
4896;DHT22;2463;49.948;8.472;2023-05-10T00:15:11;14.60;99.90
4896;DHT22;2463;49.948;8.472;2023-05-10T00:17:38;14.60;99.90
4896;DHT22;2463;49.948;8.472;2023-05-10T00:20:06;14.60;99.90
4896;DHT22;2463;49.948;8.472;2023-05-10T00:22:32;14.60;99.90
4896;DHT22;2463;49.948;8.472;2023-05-10T00:24:59;14.60;99.90
4896;DHT22;2463;49.948;8.472;2023-05-10T00:27:26;14.50;99.90
4896;DHT22;2463;49.948;8.472;2023-05-10T00:29:53;14.50;99.90
4896;DHT22;2463;49.948;8.472;2023-05-10T00:32:20;14.60;99.90
4896;DHT22;2463;49.948;8.472;2023-05-10T00:34:47;14.50;99.90
4896;DHT22;2463;49.948;8.472;2023-05-10T00:37:14;14.50;99.90
4896;DHT22;2463;49.948;8.472;2023-05-10T00:39:40;14.50;99.90
4896;DHT22;2463;49.948;8.472;2023-05-10T00:42:07;14.50;99.90
4896;DHT22;2463;49.948;8.472;2023-05-10T00:44:34;14.50;99.90
4896;DHT22;2463;49.948;8.472;2023-05-10T00:47:00;14.50;99.90
4896;DHT22;2463;49.948;8.472;2023-05-10T00:49:28;14.50;99.90
4896;DHT22;2463;49.948;8.472;2023-05-10T00:51:55;14.50;99.90
4896;DHT22;2463;49.948;8.472;2023-05-10T00:54:22;14.50;99.90
4896;DHT22;2463;49.948;8.472;2023-05-10T00:56:49;14.50;99.90
4896;DHT22;2463;49.948;8.472;2023-05-10T00:59:16;14.40;99.90
4896;DHT22;2463;49.948;8.472;2023-05-10T01:01:46;14.50;99.90
4896;DHT22;2463;49.948;8.472;2023-05-10T01:04:14;14.50;99.90
4896;DHT22;2463;49.948;8.472;2023-05-10T01:06:41;14.50;99.90
4896;DHT22;2463;49.948;8.472;2023-05-10T01:09:09;14.50;99.90
4896;DHT22;2463;49.948;8.472;2023-05-10T01:11:38;14.50;99.90
4896;DHT22;2463;49.948;8.472;2023-05-10T01:14:05;14.50;99.90
4896;DHT22;2463;49.948;8.472;2023-05-10T01:16:37;14.50;99.90
4896;DHT22;2463;49.948;8.472;2023-05-10T01:19:17;14.50;99.90
4896;DHT22;2463;49.948;8.472;2023-05-10T01:22:55;14.60;99.90
4896;DHT22;2463;49.948;8.472;2023-05-10T01:25:11;14.60;99.90
4896;DHT22;2463;49.948;8.472;2023-05-10T01:27:53;14.60;99.90
4896;DHT22;2463;49.948;8.472;2023-05-10T01:33:46;14.60;99.90
4896;DHT22;2463;49.948;8.472;2023-05-10T01:36:32;14.60;99.90
4896;DHT22;2463;49.948;8.472;2023-05-10T01:39:11;14.60;99.90
4896;DHT22;2463;49.948;8.472;2023-05-10T01:41:51;14.60;99.90
4896;DHT22;2463;49.948;8.472;2023-05-10T01:44:37;14.60;99.90
4896;DHT22;2463;49.948;8.472;2023-05-10T01:47:15;14.60;99.90
4896;DHT22;2463;49.948;8.472;2023-05-10T01:49:50;14.60;99.90
4896;DHT22;2463;49.948;8.472;2023-05-10T01:52:19;14.60;99.90
4896;DHT22;2463;49.948;8.472;2023-05-10T01:54:58;14.60;99.90
4896;DHT22;2463;49.948;8.472;2023-05-10T01:57:30;14.60;99.90
4896;DHT22;2463;49.948;8.472;2023-05-10T01:59:58;14.60;99.90
4896;DHT22;2463;49.948;8.472;2023-05-10T02:02:27;14.60;99.90
4896;DHT22;2463;49.948;8.472;2023-05-10T02:04:55;14.50;99.90
4896;DHT22;2463;49.948;8.472;2023-05-10T02:07:24;14.50;99.90
4896;DHT22;2463;49.948;8.472;2023-05-10T02:09:51;14.50;99.90
4896;DHT22;2463;49.948;8.472;2023-05-10T02:12:18;14.40;99.90
4896;DHT22;2463;49.948;8.472;2023-05-10T02:14:47;14.40;99.90
4896;DHT22;2463;49.948;8.472;2023-05-10T02:17:14;14.30;99.90
4896;DHT22;2463;49.948;8.472;2023-05-10T02:19:43;14.30;99.90
4896;DHT22;2463;49.948;8.472;2023-05-10T02:22:12;14.20;99.90
4896;DHT22;2463;49.948;8.472;2023-05-10T02:24:39;14.20;99.90
4896;DHT22;2463;49.948;8.472;2023-05-10T02:27:07;14.10;99.90
4896;DHT22;2463;49.948;8.472;2023-05-10T02:29:36;14.10;99.90
4896;DHT22;2463;49.948;8.472;2023-05-10T02:32:03;14.10;99.90
4896;DHT22;2463;49.948;8.472;2023-05-10T02:34:31;14.10;99.90
4896;DHT22;2463;49.948;8.472;2023-05-10T02:36:59;14.10;99.90
4896;DHT22;2463;49.948;8.472;2023-05-10T02:39:28;14.20;99.90
4896;DHT22;2463;49.948;8.472;2023-05-10T02:41:56;14.20;99.90
4896;DHT22;2463;49.948;8.472;2023-05-10T02:44:27;14.20;99.90
4896;DHT22;2463;49.948;8.472;2023-05-10T02:46:54;14.30;99.90
4896;DHT22;2463;49.948;8.472;2023-05-10T02:49:22;14.30;99.90
4896;DHT22;2463;49.948;8.472;2023-05-10T02:51:51;14.30;99.90
4896;DHT22;2463;49.948;8.472;2023-05-10T02:54:25;14.30;99.90
4896;DHT22;2463;49.948;8.472;2023-05-10T02:56:58;14.30;99.90
4896;DHT22;2463;49.948;8.472;2023-05-10T02:59:28;14.30;99.90
4896;DHT22;2463;49.948;8.472;2023-05-10T03:01:54;14.30;99.90
4896;DHT22;2463;49.948;8.472;2023-05-10T03:04:21;14.30;99.90
4896;DHT22;2463;49.948;8.472;2023-05-10T03:06:48;14.30;99.90
4896;DHT22;2463;49.948;8.472;2023-05-10T03:09:15;14.30;99.90
4896;DHT22;2463;49.948;8.472;2023-05-10T03:11:55;14.30;99.90
4896;DHT22;2463;49.948;8.472;2023-05-10T03:17:10;14.30;99.90
4896;DHT22;2463;49.948;8.472;2023-05-10T03:20:04;14.30;99.90
4896;DHT22;2463;49.948;8.472;2023-05-10T03:22:37;14.20;99.90
4896;DHT22;2463;49.948;8.472;2023-05-10T03:25:06;14.30;99.90
4896;DHT22;2463;49.948;8.472;2023-05-10T03:27:36;14.20;99.90
4896;DHT22;2463;49.948;8.472;2023-05-10T03:30:04;14.20;99.90
4896;DHT22;2463;49.948;8.472;2023-05-10T03:32:31;14.20;99.90
4896;DHT22;2463;49.948;8.472;2023-05-10T03:35:01;14.10;99.90
4896;DHT22;2463;49.948;8.472;2023-05-10T03:37:27;14.10;99.90
4896;DHT22;2463;49.948;8.472;2023-05-10T03:39:54;14.10;99.90
4896;DHT22;2463;49.948;8.472;2023-05-10T03:42:21;14.10;99.90
4896;DHT22;2463;49.948;8.472;2023-05-10T03:44:47;14.10;99.90
4896;DHT22;2463;49.948;8.472;2023-05-10T03:47:15;14.10;99.90
4896;DHT22;2463;49.948;8.472;2023-05-10T03:49:42;14.10;99.90
4896;DHT22;2463;49.948;8.472;2023-05-10T03:52:09;14.10;99.90
4896;DHT22;2463;49.948;8.472;2023-05-10T03:54:36;14.10;99.90
4896;DHT22;2463;49.948;8.472;2023-05-10T03:57:02;14.10;99.90
4896;DHT22;2463;49.948;8.472;2023-05-10T03:59:29;14.10;99.90
4896;DHT22;2463;49.948;8.472;2023-05-10T04:01:56;14.10;99.90
4896;DHT22;2463;49.948;8.472;2023-05-10T04:04:23;14.10;99.90
4896;DHT22;2463;49.948;8.472;2023-05-10T04:06:49;14.20;99.90
4896;DHT22;2463;49.948;8.472;2023-05-10T04:09:16;14.20;99.90
4896;DHT22;2463;49.948;8.472;2023-05-10T04:11:43;14.20;99.90
4896;DHT22;2463;49.948;8.472;2023-05-10T04:14:10;14.20;99.90
4896;DHT22;2463;49.948;8.472;2023-05-10T04:16:36;14.20;99.90
4896;DHT22;2463;49.948;8.472;2023-05-10T04:19:03;14.20;99.90
4896;DHT22;2463;49.948;8.472;2023-05-10T04:21:30;14.20;99.90
4896;DHT22;2463;49.948;8.472;2023-05-10T04:23:57;14.20;99.90
4896;DHT22;2463;49.948;8.472;2023-05-10T04:26:23;14.30;99.90
4896;DHT22;2463;49.948;8.472;2023-05-10T04:28:51;14.30;99.90
4896;DHT22;2463;49.948;8.472;2023-05-10T04:31:18;14.40;99.90
4896;DHT22;2463;49.948;8.472;2023-05-10T04:33:45;14.40;99.90
4896;DHT22;2463;49.948;8.472;2023-05-10T04:36:12;14.50;99.90
4896;DHT22;2463;49.948;8.472;2023-05-10T04:38:38;14.50;99.90
4896;DHT22;2463;49.948;8.472;2023-05-10T04:41:10;14.50;99.90
4896;DHT22;2463;49.948;8.472;2023-05-10T04:43:37;14.60;99.90
4896;DHT22;2463;49.948;8.472;2023-05-10T04:46:05;14.60;99.90
4896;DHT22;2463;49.948;8.472;2023-05-10T04:48:32;14.60;99.90
4896;DHT22;2463;49.948;8.472;2023-05-10T04:50:59;14.60;99.90
4896;DHT22;2463;49.948;8.472;2023-05-10T04:53:26;14.60;99.90
4896;DHT22;2463;49.948;8.472;2023-05-10T04:55:53;14.60;99.90
4896;DHT22;2463;49.948;8.472;2023-05-10T04:58:19;14.60;99.90
4896;DHT22;2463;49.948;8.472;2023-05-10T05:00:46;14.60;99.90
4896;DHT22;2463;49.948;8.472;2023-05-10T05:03:13;14.70;99.90
4896;DHT22;2463;49.948;8.472;2023-05-10T05:05:39;14.70;99.90
4896;DHT22;2463;49.948;8.472;2023-05-10T05:08:06;14.70;99.90
4896;DHT22;2463;49.948;8.472;2023-05-10T05:10:33;14.70;99.90
4896;DHT22;2463;49.948;8.472;2023-05-10T05:12:59;14.80;99.90
4896;DHT22;2463;49.948;8.472;2023-05-10T05:15:26;14.70;99.90
4896;DHT22;2463;49.948;8.472;2023-05-10T05:17:53;14.80;99.90
4896;DHT22;2463;49.948;8.472;2023-05-10T05:20:20;14.70;99.90
4896;DHT22;2463;49.948;8.472;2023-05-10T05:22:47;14.80;99.90
4896;DHT22;2463;49.948;8.472;2023-05-10T05:25:14;14.70;99.90
4896;DHT22;2463;49.948;8.472;2023-05-10T05:27:41;14.70;99.90
4896;DHT22;2463;49.948;8.472;2023-05-10T05:30:08;14.70;99.90
4896;DHT22;2463;49.948;8.472;2023-05-10T05:32:35;14.70;99.90
4896;DHT22;2463;49.948;8.472;2023-05-10T05:35:02;14.70;99.90
4896;DHT22;2463;49.948;8.472;2023-05-10T05:37:29;14.70;99.90
4896;DHT22;2463;49.948;8.472;2023-05-10T05:39:55;14.60;99.90
4896;DHT22;2463;49.948;8.472;2023-05-10T05:42:22;14.50;99.90
4896;DHT22;2463;49.948;8.472;2023-05-10T05:44:49;14.60;99.90
4896;DHT22;2463;49.948;8.472;2023-05-10T05:47:16;14.60;99.90
4896;DHT22;2463;49.948;8.472;2023-05-10T05:49:42;14.60;99.90
4896;DHT22;2463;49.948;8.472;2023-05-10T05:52:12;14.60;99.90
4896;DHT22;2463;49.948;8.472;2023-05-10T05:54:38;14.60;99.90
4896;DHT22;2463;49.948;8.472;2023-05-10T05:57:05;14.70;99.90
4896;DHT22;2463;49.948;8.472;2023-05-10T05:59:32;14.80;99.90
4896;DHT22;2463;49.948;8.472;2023-05-10T06:01:58;14.90;99.90
4896;DHT22;2463;49.948;8.472;2023-05-10T06:04:25;15.00;99.90
4896;DHT22;2463;49.948;8.472;2023-05-10T06:06:52;15.00;99.90
4896;DHT22;2463;49.948;8.472;2023-05-10T06:09:19;15.10;99.90
4896;DHT22;2463;49.948;8.472;2023-05-10T06:11:45;15.10;99.90
4896;DHT22;2463;49.948;8.472;2023-05-10T06:14:13;15.10;99.90
4896;DHT22;2463;49.948;8.472;2023-05-10T06:16:39;15.20;99.90
4896;DHT22;2463;49.948;8.472;2023-05-10T06:19:06;15.30;99.90
4896;DHT22;2463;49.948;8.472;2023-05-10T06:21:33;15.40;99.90
4896;DHT22;2463;49.948;8.472;2023-05-10T06:24:00;15.40;99.90
4896;DHT22;2463;49.948;8.472;2023-05-10T06:26:26;15.50;99.90
4896;DHT22;2463;49.948;8.472;2023-05-10T06:28:53;15.50;99.90
4896;DHT22;2463;49.948;8.472;2023-05-10T06:31:20;15.50;99.90
4896;DHT22;2463;49.948;8.472;2023-05-10T06:33:47;15.50;99.90
4896;DHT22;2463;49.948;8.472;2023-05-10T06:36:14;15.40;99.90
4896;DHT22;2463;49.948;8.472;2023-05-10T06:38:40;15.40;99.90
4896;DHT22;2463;49.948;8.472;2023-05-10T06:41:07;15.40;99.90
4896;DHT22;2463;49.948;8.472;2023-05-10T06:43:34;15.40;99.90
4896;DHT22;2463;49.948;8.472;2023-05-10T06:46:01;15.40;99.90
4896;DHT22;2463;49.948;8.472;2023-05-10T06:48:28;15.40;99.90
4896;DHT22;2463;49.948;8.472;2023-05-10T06:50:54;15.40;99.90
4896;DHT22;2463;49.948;8.472;2023-05-10T06:53:21;15.40;99.90
4896;DHT22;2463;49.948;8.472;2023-05-10T06:55:49;15.40;99.90
4896;DHT22;2463;49.948;8.472;2023-05-10T06:58:16;15.30;99.90
4896;DHT22;2463;49.948;8.472;2023-05-10T07:00:42;15.30;99.90
4896;DHT22;2463;49.948;8.472;2023-05-10T07:03:10;15.20;99.90
4896;DHT22;2463;49.948;8.472;2023-05-10T07:05:37;15.20;99.90
4896;DHT22;2463;49.948;8.472;2023-05-10T07:08:04;15.30;99.90
4896;DHT22;2463;49.948;8.472;2023-05-10T07:10:31;15.40;99.90
4896;DHT22;2463;49.948;8.472;2023-05-10T07:12:57;15.50;99.90
4896;DHT22;2463;49.948;8.472;2023-05-10T07:15:24;15.60;99.90
4896;DHT22;2463;49.948;8.472;2023-05-10T07:17:51;15.80;99.90
4896;DHT22;2463;49.948;8.472;2023-05-10T07:20:18;15.80;99.90
4896;DHT22;2463;49.948;8.472;2023-05-10T07:22:45;15.90;99.90
4896;DHT22;2463;49.948;8.472;2023-05-10T07:25:12;16.00;99.90
4896;DHT22;2463;49.948;8.472;2023-05-10T07:27:38;16.10;99.90
4896;DHT22;2463;49.948;8.472;2023-05-10T07:30:05;16.40;99.90
4896;DHT22;2463;49.948;8.472;2023-05-10T07:32:32;16.60;99.90
4896;DHT22;2463;49.948;8.472;2023-05-10T07:34:59;16.80;99.90
4896;DHT22;2463;49.948;8.472;2023-05-10T07:37:26;17.00;99.90
4896;DHT22;2463;49.948;8.472;2023-05-10T07:39:53;17.20;99.90
4896;DHT22;2463;49.948;8.472;2023-05-10T07:42:19;17.30;99.90
4896;DHT22;2463;49.948;8.472;2023-05-10T07:44:46;17.40;99.90
4896;DHT22;2463;49.948;8.472;2023-05-10T07:47:13;17.50;99.90
4896;DHT22;2463;49.948;8.472;2023-05-10T07:49:40;17.60;99.90
4896;DHT22;2463;49.948;8.472;2023-05-10T07:52:07;17.60;99.90
4896;DHT22;2463;49.948;8.472;2023-05-10T07:54:33;17.70;99.90
4896;DHT22;2463;49.948;8.472;2023-05-10T07:57:00;17.70;99.90
4896;DHT22;2463;49.948;8.472;2023-05-10T07:59:27;17.70;99.90
4896;DHT22;2463;49.948;8.472;2023-05-10T08:01:53;17.60;99.90
4896;DHT22;2463;49.948;8.472;2023-05-10T08:04:20;17.80;99.90
4896;DHT22;2463;49.948;8.472;2023-05-10T08:06:47;17.80;99.90
4896;DHT22;2463;49.948;8.472;2023-05-10T08:09:14;17.90;99.90
4896;DHT22;2463;49.948;8.472;2023-05-10T08:11:40;18.00;99.90
4896;DHT22;2463;49.948;8.472;2023-05-10T08:14:07;18.10;99.90
4896;DHT22;2463;49.948;8.472;2023-05-10T08:16:33;18.00;99.90
4896;DHT22;2463;49.948;8.472;2023-05-10T08:19:01;18.10;99.90
4896;DHT22;2463;49.948;8.472;2023-05-10T08:21:28;18.10;99.90
4896;DHT22;2463;49.948;8.472;2023-05-10T08:23:54;18.20;99.90
4896;DHT22;2463;49.948;8.472;2023-05-10T08:26:21;18.20;99.90
4896;DHT22;2463;49.948;8.472;2023-05-10T08:28:48;18.20;99.90
4896;DHT22;2463;49.948;8.472;2023-05-10T08:31:15;18.10;99.90
4896;DHT22;2463;49.948;8.472;2023-05-10T08:33:42;18.10;99.90
4896;DHT22;2463;49.948;8.472;2023-05-10T08:36:10;18.10;99.90
4896;DHT22;2463;49.948;8.472;2023-05-10T08:38:37;18.00;99.90
4896;DHT22;2463;49.948;8.472;2023-05-10T08:41:05;18.00;99.90
4896;DHT22;2463;49.948;8.472;2023-05-10T08:43:32;17.90;99.90
4896;DHT22;2463;49.948;8.472;2023-05-10T08:46:05;17.90;99.90
4896;DHT22;2463;49.948;8.472;2023-05-10T08:48:34;17.90;99.90
4896;DHT22;2463;49.948;8.472;2023-05-10T08:51:02;17.90;99.90
4896;DHT22;2463;49.948;8.472;2023-05-10T08:53:31;17.80;99.90
4896;DHT22;2463;49.948;8.472;2023-05-10T08:56:00;17.80;99.90
4896;DHT22;2463;49.948;8.472;2023-05-10T08:58:27;17.80;99.90
4896;DHT22;2463;49.948;8.472;2023-05-10T09:00:54;17.70;99.90
4896;DHT22;2463;49.948;8.472;2023-05-10T09:03:22;17.70;99.90
4896;DHT22;2463;49.948;8.472;2023-05-10T09:05:49;17.60;99.90
4896;DHT22;2463;49.948;8.472;2023-05-10T09:08:16;17.40;99.90
4896;DHT22;2463;49.948;8.472;2023-05-10T09:10:44;17.30;99.90
4896;DHT22;2463;49.948;8.472;2023-05-10T09:13:14;17.40;99.90
4896;DHT22;2463;49.948;8.472;2023-05-10T09:15:44;17.40;99.90
4896;DHT22;2463;49.948;8.472;2023-05-10T09:18:11;17.50;99.90
4896;DHT22;2463;49.948;8.472;2023-05-10T09:20:38;17.70;99.90
4896;DHT22;2463;49.948;8.472;2023-05-10T09:23:05;17.80;99.90
4896;DHT22;2463;49.948;8.472;2023-05-10T09:25:32;17.90;99.90
4896;DHT22;2463;49.948;8.472;2023-05-10T09:28:02;18.10;99.90
4896;DHT22;2463;49.948;8.472;2023-05-10T09:30:32;18.00;99.90
4896;DHT22;2463;49.948;8.472;2023-05-10T09:32:59;18.10;99.90
4896;DHT22;2463;49.948;8.472;2023-05-10T09:35:28;18.00;99.90
4896;DHT22;2463;49.948;8.472;2023-05-10T09:37:59;17.90;99.90
4896;DHT22;2463;49.948;8.472;2023-05-10T09:40:28;17.90;99.90
4896;DHT22;2463;49.948;8.472;2023-05-10T09:43:00;17.80;99.90
4896;DHT22;2463;49.948;8.472;2023-05-10T09:45:29;17.80;99.90
4896;DHT22;2463;49.948;8.472;2023-05-10T09:47:57;17.80;99.90
4896;DHT22;2463;49.948;8.472;2023-05-10T09:50:24;17.90;99.90
4896;DHT22;2463;49.948;8.472;2023-05-10T09:52:56;18.10;99.90
4896;DHT22;2463;49.948;8.472;2023-05-10T09:58:05;18.30;99.90
4896;DHT22;2463;49.948;8.472;2023-05-10T10:00:40;18.40;99.90
4896;DHT22;2463;49.948;8.472;2023-05-10T10:03:19;18.60;99.90
4896;DHT22;2463;49.948;8.472;2023-05-10T10:05:47;18.60;99.90
4896;DHT22;2463;49.948;8.472;2023-05-10T10:08:15;18.60;99.90
4896;DHT22;2463;49.948;8.472;2023-05-10T10:10:43;18.80;99.90
4896;DHT22;2463;49.948;8.472;2023-05-10T10:13:12;18.90;99.90
4896;DHT22;2463;49.948;8.472;2023-05-10T10:15:39;19.20;99.90
4896;DHT22;2463;49.948;8.472;2023-05-10T10:18:06;19.40;99.90
4896;DHT22;2463;49.948;8.472;2023-05-10T10:20:37;19.70;99.90
4896;DHT22;2463;49.948;8.472;2023-05-10T10:23:03;20.00;99.90
4896;DHT22;2463;49.948;8.472;2023-05-10T10:25:30;20.20;99.90
4896;DHT22;2463;49.948;8.472;2023-05-10T10:28:09;20.30;99.90
4896;DHT22;2463;49.948;8.472;2023-05-10T10:30:45;20.40;99.90
4896;DHT22;2463;49.948;8.472;2023-05-10T10:33:47;20.30;99.90
4896;DHT22;2463;49.948;8.472;2023-05-10T10:36:17;20.00;99.90
4896;DHT22;2463;49.948;8.472;2023-05-10T10:41:29;19.20;99.90
4896;DHT22;2463;49.948;8.472;2023-05-10T10:44:25;18.90;99.90
4896;DHT22;2463;49.948;8.472;2023-05-10T10:57:28;18.10;99.90
4896;DHT22;2463;49.948;8.472;2023-05-10T11:00:22;17.90;99.90
4896;DHT22;2463;49.948;8.472;2023-05-10T11:08:00;17.60;99.90
4896;DHT22;2463;49.948;8.472;2023-05-10T11:10:27;17.60;99.90
4896;DHT22;2463;49.948;8.472;2023-05-10T11:13:01;17.80;99.90
4896;DHT22;2463;49.948;8.472;2023-05-10T11:15:32;17.90;99.90
4896;DHT22;2463;49.948;8.472;2023-05-10T11:17:59;18.10;99.90
4896;DHT22;2463;49.948;8.472;2023-05-10T11:20:39;18.20;99.90
4896;DHT22;2463;49.948;8.472;2023-05-10T11:23:14;18.50;99.90
4896;DHT22;2463;49.948;8.472;2023-05-10T11:25:43;18.70;99.90
4896;DHT22;2463;49.948;8.472;2023-05-10T11:28:13;19.00;99.90
4896;DHT22;2463;49.948;8.472;2023-05-10T11:30:43;19.00;99.90
4896;DHT22;2463;49.948;8.472;2023-05-10T11:33:15;19.20;99.90
4896;DHT22;2463;49.948;8.472;2023-05-10T11:35:42;19.30;99.90
4896;DHT22;2463;49.948;8.472;2023-05-10T11:38:13;19.40;99.90
4896;DHT22;2463;49.948;8.472;2023-05-10T11:40:40;19.80;99.90
4896;DHT22;2463;49.948;8.472;2023-05-10T11:43:09;20.00;99.90
4896;DHT22;2463;49.948;8.472;2023-05-10T11:45:37;20.00;99.90
4896;DHT22;2463;49.948;8.472;2023-05-10T11:48:03;20.10;99.90
4896;DHT22;2463;49.948;8.472;2023-05-10T11:50:30;20.40;99.90
4896;DHT22;2463;49.948;8.472;2023-05-10T11:52:57;20.70;99.90
4896;DHT22;2463;49.948;8.472;2023-05-10T11:55:25;21.10;99.90
4896;DHT22;2463;49.948;8.472;2023-05-10T11:57:52;21.40;99.90
4896;DHT22;2463;49.948;8.472;2023-05-10T12:00:19;21.90;99.90
4896;DHT22;2463;49.948;8.472;2023-05-10T12:02:47;22.30;99.90
4896;DHT22;2463;49.948;8.472;2023-05-10T12:05:14;22.50;99.90
4896;DHT22;2463;49.948;8.472;2023-05-10T12:07:41;22.60;99.90
4896;DHT22;2463;49.948;8.472;2023-05-10T12:10:09;22.70;99.90
4896;DHT22;2463;49.948;8.472;2023-05-10T12:12:43;22.70;99.90
4896;DHT22;2463;49.948;8.472;2023-05-10T12:15:12;22.70;99.90
4896;DHT22;2463;49.948;8.472;2023-05-10T12:17:39;22.90;99.90
4896;DHT22;2463;49.948;8.472;2023-05-10T12:20:16;22.90;99.90
4896;DHT22;2463;49.948;8.472;2023-05-10T12:25:13;22.70;99.90
4896;DHT22;2463;49.948;8.472;2023-05-10T12:27:41;22.80;99.90
4896;DHT22;2463;49.948;8.472;2023-05-10T12:30:08;22.50;99.90
4896;DHT22;2463;49.948;8.472;2023-05-10T12:32:38;22.50;99.90
4896;DHT22;2463;49.948;8.472;2023-05-10T12:35:06;22.70;99.90
4896;DHT22;2463;49.948;8.472;2023-05-10T12:37:33;22.80;99.90
4896;DHT22;2463;49.948;8.472;2023-05-10T12:40:09;23.10;99.90
4896;DHT22;2463;49.948;8.472;2023-05-10T12:42:38;23.40;99.90
4896;DHT22;2463;49.948;8.472;2023-05-10T12:45:06;23.10;99.90
4896;DHT22;2463;49.948;8.472;2023-05-10T12:47:34;22.90;99.90
4896;DHT22;2463;49.948;8.472;2023-05-10T12:50:01;23.00;99.90
4896;DHT22;2463;49.948;8.472;2023-05-10T12:52:29;23.30;99.90
4896;DHT22;2463;49.948;8.472;2023-05-10T12:54:56;23.30;99.90
4896;DHT22;2463;49.948;8.472;2023-05-10T12:57:23;23.40;99.90
4896;DHT22;2463;49.948;8.472;2023-05-10T12:59:49;23.40;99.90
4896;DHT22;2463;49.948;8.472;2023-05-10T13:02:16;23.30;99.90
4896;DHT22;2463;49.948;8.472;2023-05-10T13:04:47;23.30;99.90
4896;DHT22;2463;49.948;8.472;2023-05-10T13:07:16;23.70;99.90
4896;DHT22;2463;49.948;8.472;2023-05-10T13:09:43;23.80;99.90
4896;DHT22;2463;49.948;8.472;2023-05-10T13:12:10;23.80;99.90
4896;DHT22;2463;49.948;8.472;2023-05-10T13:14:36;23.70;99.90
4896;DHT22;2463;49.948;8.472;2023-05-10T13:17:03;23.70;99.90
4896;DHT22;2463;49.948;8.472;2023-05-10T13:19:30;23.80;99.90
4896;DHT22;2463;49.948;8.472;2023-05-10T13:21:57;23.70;99.90
4896;DHT22;2463;49.948;8.472;2023-05-10T13:24:24;23.40;99.90
4896;DHT22;2463;49.948;8.472;2023-05-10T13:26:51;23.20;99.90
4896;DHT22;2463;49.948;8.472;2023-05-10T13:29:17;22.80;99.90
4896;DHT22;2463;49.948;8.472;2023-05-10T13:31:45;22.70;99.90
4896;DHT22;2463;49.948;8.472;2023-05-10T13:34:12;22.50;99.90
4896;DHT22;2463;49.948;8.472;2023-05-10T13:36:39;22.40;99.90
4896;DHT22;2463;49.948;8.472;2023-05-10T13:39:05;22.40;99.90
4896;DHT22;2463;49.948;8.472;2023-05-10T13:41:32;22.30;99.90
4896;DHT22;2463;49.948;8.472;2023-05-10T13:43:59;22.30;99.90
4896;DHT22;2463;49.948;8.472;2023-05-10T13:46:26;22.30;99.90
4896;DHT22;2463;49.948;8.472;2023-05-10T13:48:53;22.70;99.90
4896;DHT22;2463;49.948;8.472;2023-05-10T13:51:19;22.70;99.90
4896;DHT22;2463;49.948;8.472;2023-05-10T13:53:46;22.70;99.90
4896;DHT22;2463;49.948;8.472;2023-05-10T13:56:13;23.00;99.90
4896;DHT22;2463;49.948;8.472;2023-05-10T13:58:40;23.00;99.90
4896;DHT22;2463;49.948;8.472;2023-05-10T14:01:07;23.00;99.90
4896;DHT22;2463;49.948;8.472;2023-05-10T14:03:34;23.00;99.90
4896;DHT22;2463;49.948;8.472;2023-05-10T14:06:01;23.10;99.90
4896;DHT22;2463;49.948;8.472;2023-05-10T14:08:27;23.20;99.90
4896;DHT22;2463;49.948;8.472;2023-05-10T14:10:54;23.30;99.90
4896;DHT22;2463;49.948;8.472;2023-05-10T14:13:23;23.30;99.90
4896;DHT22;2463;49.948;8.472;2023-05-10T14:15:50;23.50;99.90
4896;DHT22;2463;49.948;8.472;2023-05-10T14:18:17;23.60;99.90
4896;DHT22;2463;49.948;8.472;2023-05-10T14:20:44;23.60;99.90
4896;DHT22;2463;49.948;8.472;2023-05-10T14:23:10;23.60;99.90
4896;DHT22;2463;49.948;8.472;2023-05-10T14:25:41;23.50;99.90
4896;DHT22;2463;49.948;8.472;2023-05-10T14:28:08;23.40;99.90
4896;DHT22;2463;49.948;8.472;2023-05-10T14:30:34;23.20;99.90
4896;DHT22;2463;49.948;8.472;2023-05-10T14:33:02;23.10;99.90
4896;DHT22;2463;49.948;8.472;2023-05-10T14:35:29;22.90;99.90
4896;DHT22;2463;49.948;8.472;2023-05-10T14:37:57;22.70;99.90
4896;DHT22;2463;49.948;8.472;2023-05-10T14:40:25;22.60;99.90
4896;DHT22;2463;49.948;8.472;2023-05-10T14:42:52;22.40;99.90
4896;DHT22;2463;49.948;8.472;2023-05-10T14:45:20;22.20;99.90
4896;DHT22;2463;49.948;8.472;2023-05-10T14:47:47;22.10;99.90
4896;DHT22;2463;49.948;8.472;2023-05-10T14:50:14;21.90;99.90
4896;DHT22;2463;49.948;8.472;2023-05-10T14:53:00;21.80;99.90
4896;DHT22;2463;49.948;8.472;2023-05-10T14:55:27;21.60;99.90
4896;DHT22;2463;49.948;8.472;2023-05-10T14:57:53;21.40;99.90
4896;DHT22;2463;49.948;8.472;2023-05-10T15:00:20;21.40;99.90
4896;DHT22;2463;49.948;8.472;2023-05-10T15:02:48;21.20;99.90
4896;DHT22;2463;49.948;8.472;2023-05-10T15:05:15;21.20;99.90
4896;DHT22;2463;49.948;8.472;2023-05-10T15:07:43;21.10;99.90
4896;DHT22;2463;49.948;8.472;2023-05-10T15:10:10;21.10;99.90
4896;DHT22;2463;49.948;8.472;2023-05-10T15:12:38;21.10;99.90
4896;DHT22;2463;49.948;8.472;2023-05-10T15:15:05;21.10;99.90
4896;DHT22;2463;49.948;8.472;2023-05-10T15:17:32;20.90;99.90
4896;DHT22;2463;49.948;8.472;2023-05-10T15:20:00;20.70;99.90
4896;DHT22;2463;49.948;8.472;2023-05-10T15:22:28;20.70;99.90
4896;DHT22;2463;49.948;8.472;2023-05-10T15:24:56;20.40;99.90
4896;DHT22;2463;49.948;8.472;2023-05-10T15:27:23;20.30;99.90
4896;DHT22;2463;49.948;8.472;2023-05-10T15:29:49;20.10;99.90
4896;DHT22;2463;49.948;8.472;2023-05-10T15:32:16;20.10;99.90
4896;DHT22;2463;49.948;8.472;2023-05-10T15:34:43;19.80;99.90
4896;DHT22;2463;49.948;8.472;2023-05-10T15:37:09;19.60;99.90
4896;DHT22;2463;49.948;8.472;2023-05-10T15:39:36;19.60;99.90
4896;DHT22;2463;49.948;8.472;2023-05-10T15:42:03;19.50;99.90
4896;DHT22;2463;49.948;8.472;2023-05-10T15:44:30;19.50;99.90
4896;DHT22;2463;49.948;8.472;2023-05-10T15:46:57;19.40;99.90
4896;DHT22;2463;49.948;8.472;2023-05-10T15:49:24;19.40;99.90
4896;DHT22;2463;49.948;8.472;2023-05-10T15:51:50;19.40;99.90
4896;DHT22;2463;49.948;8.472;2023-05-10T15:54:17;19.60;99.90
4896;DHT22;2463;49.948;8.472;2023-05-10T15:56:44;19.60;99.90
4896;DHT22;2463;49.948;8.472;2023-05-10T15:59:11;19.60;99.90
4896;DHT22;2463;49.948;8.472;2023-05-10T16:01:37;19.60;99.90
4896;DHT22;2463;49.948;8.472;2023-05-10T16:04:04;19.60;99.90
4896;DHT22;2463;49.948;8.472;2023-05-10T16:06:31;19.50;99.90
4896;DHT22;2463;49.948;8.472;2023-05-10T16:08:58;19.50;99.90
4896;DHT22;2463;49.948;8.472;2023-05-10T16:11:25;19.50;99.90
4896;DHT22;2463;49.948;8.472;2023-05-10T16:13:51;19.60;99.90
4896;DHT22;2463;49.948;8.472;2023-05-10T16:16:18;19.60;99.90
4896;DHT22;2463;49.948;8.472;2023-05-10T16:18:45;19.70;99.90
4896;DHT22;2463;49.948;8.472;2023-05-10T16:21:12;19.80;99.90
4896;DHT22;2463;49.948;8.472;2023-05-10T16:23:38;19.80;99.90
4896;DHT22;2463;49.948;8.472;2023-05-10T16:26:05;19.90;99.90
4896;DHT22;2463;49.948;8.472;2023-05-10T16:28:32;20.00;99.90
4896;DHT22;2463;49.948;8.472;2023-05-10T16:30:59;20.10;99.90
4896;DHT22;2463;49.948;8.472;2023-05-10T16:33:26;20.20;99.90
4896;DHT22;2463;49.948;8.472;2023-05-10T16:35:53;20.20;99.90
4896;DHT22;2463;49.948;8.472;2023-05-10T16:38:19;20.10;99.90